PWSweather.com
Personal Weather Stations
Station Observations
AF1HS
North Haven, CT 06473

North Haven, CT 06473

Lat: 41.3733, Lon: -72.8413

Elevation: 85.3

Station Type: Oregon Scientific WMR968

http://www.af1hs.com/wx/index.php

Latest ConditionsUpdated 2:21:20 PM EDT Monday, Jul 16, 2018
Currently Today's Max Today's Min Today's Average
Temperature 89.9°F32.2°C 89.9°F32.2°C 65.5°F18.6°C 77.4°F25.2°C
Dew Point 67.6°F19.8°C 73.1°F22.8°C 61.6°F16.4°C 67.0°F19.4°C
Winds 5.3 mph S8.5 kmh S 5.8 mph -9.3 kmh - - 1.3 mph 2.1 kmh
Wind Gusts 10.1 mph16.3 kmh 10.1 mph16.3 kmh - -
Humidity 48% 97% 48% 73%
Pressure 29.80 in1009.1 mb 29.86 in1011.2 mb 29.80 in1009.1 mb -
Hour Temp Dew Point Humidity Winds Wind Gusts Pressure Precip Precip Rate Daily Precip Total
02:21 PM 89.9°F32.2°C 67.6°F19.8°C 48% 5.3 mph S8.5 kmh S 10.1 mph16.3 kmh 29.80 in1009.1 mb - 0.00 in0.0 mm 0.00 in0.0 mm
02:01 PM 89.5°F31.9°C 69.6°F20.9°C 52% 4.0 mph S6.4 kmh S 8.0 mph12.9 kmh 29.82 in1009.8 mb - 0.00 in0.0 mm 0.00 in0.0 mm
01:41 PM 89.9°F32.2°C 70.4°F21.3°C 53% 3.6 mph S5.8 kmh S 9.2 mph14.8 kmh 29.82 in1009.8 mb - 0.00 in0.0 mm 0.00 in0.0 mm
01:31 PM 89.4°F31.9°C 70.6°F21.4°C 54% 3.5 mph SSE5.6 kmh SSE 8.7 mph14.0 kmh 29.82 in1009.8 mb - 0.00 in0.0 mm 0.00 in0.0 mm
01:21 PM 89.1°F31.7°C 70.3°F21.3°C 54% 4.3 mph SSE6.9 kmh SSE 8.0 mph12.9 kmh 29.82 in1009.8 mb - 0.00 in0.0 mm 0.00 in0.0 mm
01:11 PM 89.1°F31.7°C 70.3°F21.3°C 54% 4.9 mph SSE7.9 kmh SSE 8.7 mph14.0 kmh 29.82 in1009.8 mb - 0.00 in0.0 mm 0.00 in0.0 mm
01:01 PM 89.0°F31.7°C 70.2°F21.2°C 54% 5.0 mph SSE8.0 kmh SSE 10.1 mph16.3 kmh 29.82 in1009.8 mb - 0.00 in0.0 mm 0.00 in0.0 mm
12:51 PM 89.8°F32.1°C 70.9°F21.6°C 54% 3.0 mph SE4.8 kmh SE 6.7 mph10.8 kmh 29.82 in1009.8 mb - 0.00 in0.0 mm 0.00 in0.0 mm
12:41 PM 89.5°F31.9°C 70.6°F21.4°C 54% 4.6 mph SSW7.4 kmh SSW 9.6 mph15.4 kmh 29.82 in1009.8 mb - 0.00 in0.0 mm 0.00 in0.0 mm
12:31 PM 88.4°F31.3°C 70.2°F21.2°C 55% 4.7 mph SSW7.6 kmh SSW 8.3 mph13.4 kmh 29.82 in1009.8 mb - 0.00 in0.0 mm 0.00 in0.0 mm
12:21 PM 88.8°F31.6°C 70.6°F21.4°C 55% 3.8 mph S6.1 kmh S 5.4 mph8.7 kmh 29.82 in1009.8 mb - 0.00 in0.0 mm 0.00 in0.0 mm
12:11 PM 87.8°F31.0°C 69.1°F20.6°C 54% 5.8 mph S9.3 kmh S 6.3 mph10.1 kmh 29.82 in1009.8 mb - 0.00 in0.0 mm 0.00 in0.0 mm
12:01 PM 89.2°F31.8°C 70.4°F21.3°C 54% 4.8 mph S7.7 kmh S 10.1 mph16.3 kmh 29.82 in1009.8 mb - 0.00 in0.0 mm 0.00 in0.0 mm
11:51 AM 88.6°F31.4°C 69.8°F21.0°C 54% 3.5 mph SSW5.6 kmh SSW 3.6 mph5.8 kmh 29.82 in1009.8 mb - 0.00 in0.0 mm 0.00 in0.0 mm
11:41 AM 88.6°F31.4°C 70.3°F21.3°C 55% 3.2 mph S5.1 kmh S 4.9 mph7.9 kmh 29.82 in1009.8 mb - 0.00 in0.0 mm 0.00 in0.0 mm
11:31 AM 88.6°F31.4°C 70.9°F21.6°C 56% 1.9 mph SE3.1 kmh SE 2.7 mph4.3 kmh 29.82 in1009.8 mb - 0.00 in0.0 mm 0.00 in0.0 mm
11:01 AM 88.2°F31.2°C 70.0°F21.1°C 55% 3.9 mph SE6.3 kmh SE 4.0 mph6.4 kmh 29.86 in1011.2 mb - 0.00 in0.0 mm 0.00 in0.0 mm
10:51 AM 88.6°F31.4°C 70.3°F21.3°C 55% 3.3 mph S5.3 kmh S 6.3 mph10.1 kmh 29.85 in1010.8 mb - 0.00 in0.0 mm 0.00 in0.0 mm
10:41 AM 88.5°F31.4°C 70.2°F21.2°C 55% 2.5 mph S4.0 kmh S 6.3 mph10.1 kmh 29.82 in1009.8 mb - 0.00 in0.0 mm 0.00 in0.0 mm
10:21 AM 86.8°F30.4°C 69.8°F21.0°C 57% 3.2 mph S5.1 kmh S 5.8 mph9.3 kmh 29.86 in1011.2 mb - 0.00 in0.0 mm 0.00 in0.0 mm
10:01 AM 86.4°F30.2°C 69.8°F21.0°C 58% 0.1 mph SE0.2 kmh SE 4.0 mph6.4 kmh 29.86 in1011.2 mb - 0.00 in0.0 mm 0.00 in0.0 mm
09:21 AM 84.3°F29.1°C 68.5°F20.3°C 59% Calm Calm 2.2 mph3.5 kmh 29.86 in1011.2 mb - 0.00 in0.0 mm 0.00 in0.0 mm
09:01 AM 83.2°F28.4°C 66.9°F19.4°C 58% Calm Calm -- 29.86 in1011.2 mb - 0.00 in0.0 mm 0.00 in0.0 mm
08:51 AM 81.9°F27.7°C 66.2°F19.0°C 59% Calm Calm -- 29.86 in1011.2 mb - 0.00 in0.0 mm 0.00 in0.0 mm
08:41 AM 81.6°F27.6°C 67.8°F19.9°C 63% Calm Calm -- 29.86 in1011.2 mb - 0.00 in0.0 mm 0.00 in0.0 mm
08:31 AM 80.0°F26.7°C 66.3°F19.1°C 63% Calm Calm -- 29.86 in1011.2 mb - 0.00 in0.0 mm 0.00 in0.0 mm
08:21 AM 79.1°F26.2°C 65.4°F18.6°C 63% Calm Calm -- 29.86 in1011.2 mb - 0.00 in0.0 mm 0.00 in0.0 mm
08:11 AM 77.5°F25.3°C 65.2°F18.4°C 66% Calm Calm -- 29.86 in1011.2 mb - 0.00 in0.0 mm 0.00 in0.0 mm
08:01 AM 76.2°F24.6°C 64.5°F18.1°C 67% Calm Calm -- 29.86 in1011.2 mb - 0.00 in0.0 mm 0.00 in0.0 mm
07:51 AM 75.9°F24.4°C 66.2°F19.0°C 72% Calm Calm -- 29.86 in1011.2 mb - 0.00 in0.0 mm 0.00 in0.0 mm
07:41 AM 75.5°F24.2°C 70.0°F21.1°C 83% Calm Calm -- 29.86 in1011.2 mb - 0.00 in0.0 mm 0.00 in0.0 mm
07:31 AM 74.4°F23.6°C 71.3°F21.8°C 90% Calm Calm -- 29.86 in1011.2 mb - 0.00 in0.0 mm 0.00 in0.0 mm
07:21 AM 73.4°F23.0°C 71.9°F22.2°C 95% Calm Calm -- 29.86 in1011.2 mb - 0.00 in0.0 mm 0.00 in0.0 mm
07:11 AM 74.1°F23.4°C 73.1°F22.8°C 97% Calm Calm -- 29.86 in1011.2 mb - 0.00 in0.0 mm 0.00 in0.0 mm
06:51 AM 67.9°F19.9°C 66.7°F19.3°C 96% Calm Calm -- 29.82 in1009.8 mb - 0.00 in0.0 mm 0.00 in0.0 mm
06:31 AM 66.2°F19.0°C 65.0°F18.3°C 96% Calm Calm -- 29.86 in1011.2 mb - 0.00 in0.0 mm 0.00 in0.0 mm
06:21 AM 65.9°F18.8°C 64.7°F18.2°C 96% Calm Calm -- 29.83 in1010.2 mb - 0.00 in0.0 mm 0.00 in0.0 mm
05:51 AM 65.7°F18.7°C 64.2°F17.9°C 95% Calm Calm -- 29.82 in1009.8 mb - 0.00 in0.0 mm 0.00 in0.0 mm
05:41 AM 65.5°F18.6°C 64.0°F17.8°C 95% Calm Calm -- 29.82 in1009.8 mb - 0.00 in0.0 mm 0.00 in0.0 mm
05:31 AM 65.5°F18.6°C 63.7°F17.6°C 94% Calm Calm -- 29.82 in1009.8 mb - 0.00 in0.0 mm 0.00 in0.0 mm
05:11 AM 66.0°F18.9°C 64.5°F18.1°C 95% Calm Calm -- 29.82 in1009.8 mb - 0.00 in0.0 mm 0.00 in0.0 mm
05:01 AM 66.0°F18.9°C 64.5°F18.1°C 95% Calm Calm -- 29.82 in1009.8 mb - 0.00 in0.0 mm 0.00 in0.0 mm
04:51 AM 66.0°F18.9°C 64.2°F17.9°C 94% Calm Calm -- 29.82 in1009.8 mb - 0.00 in0.0 mm 0.00 in0.0 mm
04:21 AM 66.6°F19.2°C 64.5°F18.1°C 93% Calm Calm -- 29.82 in1009.8 mb - 0.00 in0.0 mm 0.00 in0.0 mm
04:11 AM 67.0°F19.4°C 64.9°F18.3°C 93% Calm Calm -- 29.82 in1009.8 mb - 0.00 in0.0 mm 0.00 in0.0 mm
04:01 AM 67.3°F19.6°C 65.2°F18.4°C 93% Calm Calm -- 29.82 in1009.8 mb - 0.00 in0.0 mm 0.00 in0.0 mm
03:41 AM 67.9°F19.9°C 66.7°F19.3°C 96% 0.4 mph S0.6 kmh S 5.4 mph8.7 kmh 29.82 in1009.8 mb - 0.00 in0.0 mm 0.00 in0.0 mm
03:31 AM 67.3°F19.6°C 63.6°F17.6°C 88% 0.1 mph SSE0.2 kmh SSE 3.1 mph5.0 kmh 29.82 in1009.8 mb - 0.00 in0.0 mm 0.00 in0.0 mm
03:21 AM 67.3°F19.6°C 62.9°F17.2°C 86% Calm Calm -- 29.82 in1009.8 mb - 0.00 in0.0 mm 0.00 in0.0 mm
03:11 AM 67.4°F19.7°C 63.1°F17.3°C 86% Calm Calm -- 29.82 in1009.8 mb - 0.00 in0.0 mm 0.00 in0.0 mm
03:01 AM 67.5°F19.7°C 63.5°F17.5°C 87% Calm Calm -- 29.82 in1009.8 mb - 0.00 in0.0 mm 0.00 in0.0 mm
02:51 AM 67.7°F19.8°C 63.4°F17.4°C 86% Calm Calm -- 29.82 in1009.8 mb - 0.00 in0.0 mm 0.00 in0.0 mm
02:01 AM 68.7°F20.4°C 64.4°F18.0°C 86% Calm Calm 3.1 mph5.0 kmh 29.82 in1009.8 mb - 0.00 in0.0 mm 0.00 in0.0 mm
01:41 AM 69.3°F20.7°C 64.9°F18.3°C 86% Calm Calm -- 29.82 in1009.8 mb - 0.00 in0.0 mm 0.00 in0.0 mm
01:11 AM 69.1°F20.6°C 63.0°F17.2°C 81% Calm Calm -- 29.82 in1009.8 mb - 0.00 in0.0 mm 0.00 in0.0 mm
12:51 AM 69.1°F20.6°C 63.0°F17.2°C 81% Calm Calm -- 29.82 in1009.8 mb - 0.00 in0.0 mm 0.00 in0.0 mm
12:31 AM 69.0°F20.6°C 61.8°F16.6°C 78% Calm Calm -- 29.82 in1009.8 mb - 0.00 in0.0 mm 0.00 in0.0 mm
12:21 AM 69.2°F20.7°C 61.6°F16.4°C 77% Calm Calm -- 29.82 in1009.8 mb - 0.00 in0.0 mm 0.00 in0.0 mm
12:10 AM 69.4°F20.8°C 61.9°F16.6°C 77% Calm Calm -- 29.82 in1009.8 mb - 0.00 in0.0 mm 0.00 in0.0 mm